Time;durP1;ratioP1;P1;durP2;ratioP2;P2;SDS_P1;SDS_P2;PMS_P1;PMS_P2;Temp;Humidity;BMP_temperature;BMP_pressure;BME280_temperature;BME280_humidity;BME280_pressure;Samples;Min_cycle;Max_cycle;Signal;HPM_P1;HPM_P2
2023/12/19 00:01:22;;;;;;;;;;;;;;;;;;5063710;28;19928;-79
2023/12/19 00:03:49;;;;;;;;;;;;;;;;;;5068218;28;19928;-79
2023/12/19 00:06:15;;;;;;;;;;;;;;;;;;5058738;28;19932;-79
2023/12/19 00:08:41;;;;;;;;;;;;;;;;;;5071057;28;19970;-78
2023/12/19 00:11:08;;;;;;;;;;;;;;;;;;5061980;28;19995;-80
2023/12/19 00:13:34;;;;;;;;;;;;;;;;;;5064706;28;20032;-78
2023/12/19 00:16:03;;;;;;;;;;;;;;;;;;5072058;28;20027;-80
2023/12/19 00:18:30;;;;;;;;;;;;;;;;;;5066385;28;19928;-80
2023/12/19 00:20:57;;;;;;;;;;;;;;;;;;5054331;28;20140;-80
2023/12/19 00:23:23;;;;;;;;;;;;;;;;;;5057556;28;19974;-80
2023/12/19 00:25:50;;;;;;;;;;;;;;;;;;5058395;28;19959;-78
2023/12/19 00:28:16;;;;;;;;;;;;;;;;;;5054270;28;19925;-78
2023/12/19 00:30:42;;;;;;;;;;;;;;;;;;5070210;28;19978;-79
2023/12/19 00:33:09;;;;;;;;;;;;;;;;;;5071784;28;19925;-79
2023/12/19 00:35:36;;;;;;;;;;;;;;;;;;5064917;28;20027;-79
2023/12/19 00:38:02;;;;;;;;;;;;;;;;;;5062932;28;19925;-79
2023/12/19 00:40:28;;;;;;;;;;;;;;;;;;5067423;28;19925;-80
2023/12/19 00:42:55;;;;;;;;;;;;;;;;;;5064984;28;19974;-78
2023/12/19 00:45:21;;;;;;;;;;;;;;;;;;5064665;28;19928;-79
2023/12/19 00:47:48;;;;;;;;;;;;;;;;;;5069452;28;19925;-78
2023/12/19 00:50:15;;;;;;;;;;;;;;;;;;5071641;28;19936;-78
2023/12/19 00:52:42;;;;;;;;;;;;;;;;;;5065251;28;19931;-79
2023/12/19 00:55:08;;;;;;;;;;;;;;;;;;5069806;28;20284;-78
2023/12/19 00:57:35;;;;;;;;;;;;;;;;;;5055592;28;20292;-78
2023/12/19 01:00:02;;;;;;;;;;;;;;;;;;5053695;28;19932;-78
2023/12/19 01:02:28;;;;;;;;;;;;;;;;;;5062729;28;19925;-78
2023/12/19 01:04:58;;;;;;;;;;;;;;;;;;5069966;28;20385;-77
2023/12/19 01:07:24;;;;;;;;;;;;;;;;;;5063243;28;20002;-78
2023/12/19 01:09:51;;;;;;;;;;;;;;;;;;5064979;28;19974;-79
2023/12/19 01:12:18;;;;;;;;;;;;;;;;;;5044372;28;19928;-80
2023/12/19 01:14:44;;;;;;;;;;;;;;;;;;5063736;28;20373;-79
2023/12/19 01:17:11;;;;;;;;;;;;;;;;;;5068992;28;19925;-78
2023/12/19 01:19:37;;;;;;;;;;;;;;;;;;5056098;28;20027;-80
2023/12/19 01:22:04;;;;;;;;;;;;;;;;;;5060906;28;19924;-79
2023/12/19 01:24:31;;;;;;;;;;;;;;;;;;5063200;28;20015;-80
2023/12/19 01:26:57;;;;;;;;;;;;;;;;;;5066018;28;19967;-80
2023/12/19 01:29:24;;;;;;;;;;;;;;;;;;5067987;28;20292;-78
2023/12/19 01:31:50;;;;;;;;;;;;;;;;;;5070517;28;19935;-79
2023/12/19 01:34:17;;;;;;;;;;;;;;;;;;5066119;28;20015;-79
2023/12/19 01:36:45;;;;;;;;;;;;;;;;;;5058020;28;19925;-79
2023/12/19 01:39:21;;;;;;;;;;;;;;;;;;5065233;28;19955;-79
2023/12/19 01:41:48;;;;;;;;;;;;;;;;;;5050811;28;19932;-78
2023/12/19 01:44:14;;;;;;;;;;;;;;;;;;5069707;28;19933;-78
2023/12/19 01:46:41;;;;;;;;;;;;;;;;;;5063331;28;20015;-78
2023/12/19 01:49:07;;;;;;;;;;;;;;;;;;5069126;28;20436;-79
2023/12/19 01:51:34;;;;;;;;;;;;;;;;;;5058890;28;20019;-78
2023/12/19 01:54:01;;;;;;;;;;;;;;;;;;5070435;28;19925;-78
2023/12/19 01:56:28;;;;;;;;;;;;;;;;;;5064165;28;20384;-78
2023/12/19 01:58:54;;;;;;;;;;;;;;;;;;5050094;28;20354;-78
2023/12/19 02:01:21;;;;;;;;;;;;;;;;;;5064138;28;19932;-79
2023/12/19 02:03:47;;;;;;;;;;;;;;;;;;5060998;28;19932;-78
2023/12/19 02:06:14;;;;;;;;;;;;;;;;;;5067793;28;19929;-78
2023/12/19 02:08:40;;;;;;;;;;;;;;;;;;5062682;28;20289;-79
2023/12/19 02:11:07;;;;;;;;;;;;;;;;;;5069608;28;19970;-79
2023/12/19 02:13:33;;;;;;;;;;;;;;;;;;5062038;28;19947;-78
2023/12/19 02:15:59;;;;;;;;;;;;;;;;;;5062768;28;19963;-78
2023/12/19 02:18:26;;;;;;;;;;;;;;;;;;5062079;28;19925;-79
2023/12/19 02:20:53;;;;;;;;;;;;;;;;;;5065201;28;19931;-78
2023/12/19 02:23:20;;;;;;;;;;;;;;;;;;5070457;28;20420;-78
2023/12/19 02:25:46;;;;;;;;;;;;;;;;;;5058461;28;19925;-79
2023/12/19 02:28:13;;;;;;;;;;;;;;;;;;5069330;28;20386;-79
2023/12/19 02:30:39;;;;;;;;;;;;;;;;;;5054532;28;19924;-80
2023/12/19 02:33:08;;;;;;;;;;;;;;;;;;5069198;28;19929;-79
2023/12/19 02:35:34;;;;;;;;;;;;;;;;;;5067146;28;19929;-78
2023/12/19 02:38:01;;;;;;;;;;;;;;;;;;5050425;28;19932;-78
2023/12/19 02:40:27;;;;;;;;;;;;;;;;;;5065369;28;19928;-78
2023/12/19 02:42:54;;;;;;;;;;;;;;;;;;5064078;28;20332;-79
2023/12/19 02:45:20;;;;;;;;;;;;;;;;;;5059797;28;19933;-78
2023/12/19 02:47:47;;;;;;;;;;;;;;;;;;5053085;28;19963;-79
2023/12/19 02:50:13;;;;;;;;;;;;;;;;;;5052725;28;19974;-81
2023/12/19 02:52:40;;;;;;;;;;;;;;;;;;5071719;28;20380;-79
2023/12/19 02:55:07;;;;;;;;;;;;;;;;;;5063289;28;19928;-78
2023/12/19 02:57:33;;;;;;;;;;;;;;;;;;5068239;28;20024;-78
2023/12/19 03:00:00;;;;;;;;;;;;;;;;;;5059989;28;19974;-77
2023/12/19 03:02:29;;;;;;;;;;;;;;;;;;5059305;28;19928;-80
2023/12/19 03:04:56;;;;;;;;;;;;;;;;;;5057802;28;19935;-78
2023/12/19 03:07:22;;;;;;;;;;;;;;;;;;5063738;28;20063;-78
2023/12/19 03:09:49;;;;;;;;;;;;;;;;;;5055898;28;20278;-79
2023/12/19 03:12:15;;;;;;;;;;;;;;;;;;5068891;28;19925;-78
2023/12/19 03:14:42;;;;;;;;;;;;;;;;;;5051436;28;19947;-80
2023/12/19 03:17:08;;;;;;;;;;;;;;;;;;5064185;28;19929;-78
2023/12/19 03:19:36;;;;;;;;;;;;;;;;;;5073106;28;19974;-78
2023/12/19 03:22:03;;;;;;;;;;;;;;;;;;5073353;28;19928;-79
2023/12/19 03:24:30;;;;;;;;;;;;;;;;;;5069107;28;20289;-78
2023/12/19 03:26:56;;;;;;;;;;;;;;;;;;5050538;28;19979;-79
2023/12/19 03:29:23;;;;;;;;;;;;;;;;;;5065387;28;19925;-80
2023/12/19 03:31:49;;;;;;;;;;;;;;;;;;5065702;28;19925;-77
2023/12/19 03:34:16;;;;;;;;;;;;;;;;;;5059555;28;19925;-77
2023/12/19 03:36:42;;;;;;;;;;;;;;;;;;5073911;28;19928;-79
2023/12/19 03:39:09;;;;;;;;;;;;;;;;;;5069577;28;19925;-78
2023/12/19 03:41:35;;;;;;;;;;;;;;;;;;5068180;28;19983;-78
2023/12/19 03:44:02;;;;;;;;;;;;;;;;;;5054676;28;20267;-78
2023/12/19 03:46:28;;;;;;;;;;;;;;;;;;5064880;28;19932;-78
2023/12/19 03:48:55;;;;;;;;;;;;;;;;;;5062605;28;19928;-78
2023/12/19 03:51:21;;;;;;;;;;;;;;;;;;5067556;28;19960;-78
2023/12/19 03:53:48;;;;;;;;;;;;;;;;;;5066147;28;19932;-79
2023/12/19 03:56:14;;;;;;;;;;;;;;;;;;5067659;28;19924;-77
2023/12/19 03:58:41;;;;;;;;;;;;;;;;;;5063138;28;19931;-79
2023/12/19 04:01:07;;;;;;;;;;;;;;;;;;5065616;28;19929;-79
2023/12/19 04:03:34;;;;;;;;;;;;;;;;;;5054631;28;20020;-78
2023/12/19 04:06:01;;;;;;;;;;;;;;;;;;5063960;28;20361;-79
2023/12/19 04:08:28;;;;;;;;;;;;;;;;;;5062149;28;20403;-79
2023/12/19 04:10:54;;;;;;;;;;;;;;;;;;5065702;28;19932;-79
2023/12/19 04:13:22;;;;;;;;;;;;;;;;;;5054319;28;19924;-78
2023/12/19 04:15:49;;;;;;;;;;;;;;;;;;5072815;28;19925;-78
2023/12/19 04:18:15;;;;;;;;;;;;;;;;;;5062281;28;19929;-77
2023/12/19 04:20:42;;;;;;;;;;;;;;;;;;5073421;28;19932;-79
2023/12/19 04:23:08;;;;;;;;;;;;;;;;;;5069438;28;19971;-78
2023/12/19 04:25:35;;;;;;;;;;;;;;;;;;5062616;28;20054;-79
2023/12/19 04:28:01;;;;;;;;;;;;;;;;;;5064192;28;19925;-78
2023/12/19 04:30:28;;;;;;;;;;;;;;;;;;5059333;28;19929;-78
2023/12/19 04:32:55;;;;;;;;;;;;;;;;;;5056430;28;19924;-79
2023/12/19 04:35:21;;;;;;;;;;;;;;;;;;5063254;28;19924;-78
2023/12/19 04:37:48;;;;;;;;;;;;;;;;;;5070638;28;19974;-79
2023/12/19 04:40:14;;;;;;;;;;;;;;;;;;5070189;28;20280;-79
2023/12/19 04:42:40;;;;;;;;;;;;;;;;;;5064978;28;19925;-78
2023/12/19 04:45:07;;;;;;;;;;;;;;;;;;5061357;28;20311;-78
2023/12/19 04:47:34;;;;;;;;;;;;;;;;;;5066599;28;19928;-78
2023/12/19 04:50:00;;;;;;;;;;;;;;;;;;5064665;28;19925;-79
2023/12/19 04:52:30;;;;;;;;;;;;;;;;;;5063040;28;19924;-79
2023/12/19 04:54:56;;;;;;;;;;;;;;;;;;5070370;28;20384;-78
2023/12/19 04:57:23;;;;;;;;;;;;;;;;;;5064132;28;19925;-78
2023/12/19 04:59:49;;;;;;;;;;;;;;;;;;5061183;28;20351;-78
2023/12/19 05:02:16;;;;;;;;;;;;;;;;;;5073021;28;19924;-78
2023/12/19 05:04:42;;;;;;;;;;;;;;;;;;5065201;28;20018;-78
2023/12/19 05:07:09;;;;;;;;;;;;;;;;;;5064212;28;19932;-78
2023/12/19 05:09:35;;;;;;;;;;;;;;;;;;5070066;28;19932;-79
2023/12/19 05:12:02;;;;;;;;;;;;;;;;;;5061619;28;19925;-77
2023/12/19 05:14:28;;;;;;;;;;;;;;;;;;5042639;28;19933;-79
2023/12/19 05:16:54;;;;;;;;;;;;;;;;;;5050817;28;20385;-79
2023/12/19 05:19:21;;;;;;;;;;;;;;;;;;5065085;28;19925;-78
2023/12/19 05:21:48;;;;;;;;;;;;;;;;;;5061587;28;20293;-79
2023/12/19 05:24:14;;;;;;;;;;;;;;;;;;5058586;28;19928;-78
2023/12/19 05:26:41;;;;;;;;;;;;;;;;;;5058933;28;19925;-78
2023/12/19 05:29:07;;;;;;;;;;;;;;;;;;5061449;28;20035;-77
2023/12/19 05:31:34;;;;;;;;;;;;;;;;;;5064202;28;19932;-79
2023/12/19 05:34:01;;;;;;;;;;;;;;;;;;5065267;28;19979;-78
2023/12/19 05:36:27;;;;;;;;;;;;;;;;;;5051906;28;20389;-77
2023/12/19 05:38:54;;;;;;;;;;;;;;;;;;5061744;28;19974;-77
2023/12/19 05:41:20;;;;;;;;;;;;;;;;;;5062261;28;19932;-76
2023/12/19 05:43:47;;;;;;;;;;;;;;;;;;5054853;28;19958;-77
2023/12/19 05:46:14;;;;;;;;;;;;;;;;;;5068346;28;19928;-77
2023/12/19 05:48:40;;;;;;;;;;;;;;;;;;5068559;28;20332;-77
2023/12/19 05:51:07;;;;;;;;;;;;;;;;;;5053319;28;19928;-77
2023/12/19 05:53:33;;;;;;;;;;;;;;;;;;5065090;28;19966;-78
2023/12/19 05:55:59;;;;;;;;;;;;;;;;;;5062347;28;19928;-78
2023/12/19 05:58:26;;;;;;;;;;;;;;;;;;5063100;28;19943;-78
2023/12/19 06:00:55;;;;;;;;;;;;;;;;;;5062718;28;19929;-78
2023/12/19 06:03:23;;;;;;;;;;;;;;;;;;5062315;28;19928;-79
2023/12/19 06:05:49;;;;;;;;;;;;;;;;;;5063062;28;19986;-79
2023/12/19 06:08:16;;;;;;;;;;;;;;;;;;5062885;28;19951;-78
2023/12/19 06:10:42;;;;;;;;;;;;;;;;;;5062611;28;19929;-80
2023/12/19 06:13:08;;;;;;;;;;;;;;;;;;5068288;28;20445;-80
2023/12/19 06:15:35;;;;;;;;;;;;;;;;;;5055380;28;20568;-79
2023/12/19 06:18:01;;;;;;;;;;;;;;;;;;5054085;28;20022;-80
2023/12/19 06:20:28;;;;;;;;;;;;;;;;;;5046186;28;19954;-78
2023/12/19 06:22:54;;;;;;;;;;;;;;;;;;5066191;28;19924;-79
2023/12/19 06:25:21;;;;;;;;;;;;;;;;;;5069749;28;19929;-79
2023/12/19 06:27:47;;;;;;;;;;;;;;;;;;5070038;28;19925;-77
2023/12/19 06:30:14;;;;;;;;;;;;;;;;;;5059721;28;19929;-79
2023/12/19 06:32:48;;;;;;;;;;;;;;;;;;5062894;28;19935;-79
2023/12/19 06:35:15;;;;;;;;;;;;;;;;;;5071626;28;19971;-79
2023/12/19 06:37:41;;;;;;;;;;;;;;;;;;5072458;28;19924;-79
2023/12/19 06:40:08;;;;;;;;;;;;;;;;;;5068850;28;19995;-79
2023/12/19 06:42:34;;;;;;;;;;;;;;;;;;5077062;28;19925;-79
2023/12/19 06:45:01;;;;;;;;;;;;;;;;;;5079307;28;20385;-80
2023/12/19 06:47:28;;;;;;;;;;;;;;;;;;5067885;28;19933;-81
2023/12/19 06:49:54;;;;;;;;;;;;;;;;;;5069943;28;19925;-79
2023/12/19 06:52:21;;;;;;;;;;;;;;;;;;5073284;28;19932;-80
2023/12/19 06:54:47;;;;;;;;;;;;;;;;;;5070105;28;19924;-79
2023/12/19 06:57:14;;;;;;;;;;;;;;;;;;5074075;28;19925;-79
2023/12/19 06:59:40;;;;;;;;;;;;;;;;;;5060107;28;19925;-81
2023/12/19 07:02:07;;;;;;;;;;;;;;;;;;5076422;28;20596;-80
2023/12/19 07:04:37;;;;;;;;;;;;;;;;;;5074789;28;19932;-80
2023/12/19 07:07:03;;;;;;;;;;;;;;;;;;5073838;28;19971;-80
2023/12/19 07:09:30;;;;;;;;;;;;;;;;;;5056280;28;20306;-80
2023/12/19 07:11:57;;;;;;;;;;;;;;;;;;5077100;28;20296;-79
2023/12/19 07:14:25;;;;;;;;;;;;;;;;;;5072188;28;20466;-80
2023/12/19 07:16:52;;;;;;;;;;;;;;;;;;5072864;28;19979;-79
2023/12/19 07:19:19;;;;;;;;;;;;;;;;;;5072548;28;19975;-79
2023/12/19 07:21:48;;;;;;;;;;;;;;;;;;5064751;28;19928;-80
2023/12/19 07:24:14;;;;;;;;;;;;;;;;;;5059852;28;20404;-78
2023/12/19 07:26:41;;;;;;;;;;;;;;;;;;5067232;28;19932;-79
2023/12/19 07:29:08;;;;;;;;;;;;;;;;;;5073271;28;19957;-78
2023/12/19 07:31:35;;;;;;;;;;;;;;;;;;5079196;28;19928;-79
2023/12/19 07:34:03;;;;;;;;;;;;;;;;;;5064656;28;20595;-79
2023/12/19 07:36:30;;;;;;;;;;;;;;;;;;5068692;28;19944;-80
2023/12/19 07:38:57;;;;;;;;;;;;;;;;;;5069049;28;20309;-80
2023/12/19 07:41:26;;;;;;;;;;;;;;;;;;5068076;28;19925;-79
2023/12/19 07:43:53;;;;;;;;;;;;;;;;;;5064132;28;19936;-80
2023/12/19 07:46:19;;;;;;;;;;;;;;;;;;5071270;28;20007;-79
2023/12/19 07:48:45;;;;;;;;;;;;;;;;;;5055758;28;19925;-79
2023/12/19 07:51:12;;;;;;;;;;;;;;;;;;5050750;28;19978;-78
2023/12/19 07:53:39;;;;;;;;;;;;;;;;;;5062587;28;19932;-80
2023/12/19 07:56:05;;;;;;;;;;;;;;;;;;5073364;28;19931;-79
2023/12/19 07:58:32;;;;;;;;;;;;;;;;;;5068170;28;20019;-80
2023/12/19 08:00:58;;;;;;;;;;;;;;;;;;5054883;28;20424;-79
2023/12/19 08:03:25;;;;;;;;;;;;;;;;;;5068755;28;20027;-78
2023/12/19 08:05:53;;;;;;;;;;;;;;;;;;5068919;28;19924;-79
2023/12/19 08:08:20;;;;;;;;;;;;;;;;;;5072173;28;19990;-79
2023/12/19 08:10:46;;;;;;;;;;;;;;;;;;5070436;28;20015;-79
2023/12/19 08:13:13;;;;;;;;;;;;;;;;;;5061906;28;20339;-80
2023/12/19 08:15:43;;;;;;;;;;;;;;;;;;5066288;28;19932;-79
2023/12/19 08:18:11;;;;;;;;;;;;;;;;;;5056914;28;19939;-79
2023/12/19 08:20:38;;;;;;;;;;;;;;;;;;5053720;28;20308;-78
2023/12/19 08:23:04;;;;;;;;;;;;;;;;;;5064865;28;19931;-80
2023/12/19 08:25:31;;;;;;;;;;;;;;;;;;5066087;28;20373;-80
2023/12/19 08:27:58;;;;;;;;;;;;;;;;;;5071531;28;19925;-80
2023/12/19 08:30:27;;;;;;;;;;;;;;;;;;5069877;28;19971;-79
2023/12/19 08:32:54;;;;;;;;;;;;;;;;;;5068534;28;19928;-78
2023/12/19 08:35:21;;;;;;;;;;;;;;;;;;5065411;28;19932;-79
2023/12/19 08:37:48;;;;;;;;;;;;;;;;;;5070993;28;19925;-79
2023/12/19 08:40:14;;;;;;;;;;;;;;;;;;5061318;28;19924;-79
2023/12/19 08:42:41;;;;;;;;;;;;;;;;;;5056756;28;20274;-80
2023/12/19 08:45:08;;;;;;;;;;;;;;;;;;5068403;28;19974;-80
2023/12/19 08:47:34;;;;;;;;;;;;;;;;;;5066019;28;19931;-79
2023/12/19 08:50:00;;;;;;;;;;;;;;;;;;5060948;28;20019;-79
2023/12/19 08:52:28;;;;;;;;;;;;;;;;;;5080256;28;19928;-78
2023/12/19 08:54:54;;;;;;;;;;;;;;;;;;5067663;28;20031;-78
2023/12/19 08:57:21;;;;;;;;;;;;;;;;;;5063388;28;19932;-78
2023/12/19 08:59:47;;;;;;;;;;;;;;;;;;5064024;28;19951;-79
2023/12/19 09:02:13;;;;;;;;;;;;;;;;;;5066353;28;19924;-79
2023/12/19 09:04:40;;;;;;;;;;;;;;;;;;5063038;28;19936;-80
2023/12/19 09:07:07;;;;;;;;;;;;;;;;;;5065786;28;19924;-80
2023/12/19 09:09:33;;;;;;;;;;;;;;;;;;5072643;28;19963;-79
2023/12/19 09:12:00;;;;;;;;;;;;;;;;;;5065867;28;20367;-79
2023/12/19 09:14:26;;;;;;;;;;;;;;;;;;5064658;28;20324;-79
2023/12/19 09:16:54;;;;;;;;;;;;;;;;;;5065869;28;20335;-79
2023/12/19 09:19:20;;;;;;;;;;;;;;;;;;5072177;28;19999;-77
2023/12/19 09:21:47;;;;;;;;;;;;;;;;;;5069867;28;19928;-76
2023/12/19 09:24:13;;;;;;;;;;;;;;;;;;5056687;28;19928;-75
2023/12/19 09:26:39;;;;;;;;;;;;;;;;;;5069620;28;19951;-75
2023/12/19 09:29:06;;;;;;;;;;;;;;;;;;5069617;28;20026;-76
2023/12/19 09:31:33;;;;;;;;;;;;;;;;;;5056960;28;19978;-76
2023/12/19 09:33:59;;;;;;;;;;;;;;;;;;5061089;28;19959;-76
2023/12/19 09:36:26;;;;;;;;;;;;;;;;;;5067044;28;19975;-76
2023/12/19 09:38:52;;;;;;;;;;;;;;;;;;5059303;28;19925;-77
2023/12/19 09:41:19;;;;;;;;;;;;;;;;;;5073565;28;19939;-76
2023/12/19 09:43:45;;;;;;;;;;;;;;;;;;5074788;28;19925;-77
2023/12/19 09:46:13;;;;;;;;;;;;;;;;;;5072078;28;19928;-78
2023/12/19 09:48:39;;;;;;;;;;;;;;;;;;5067054;28;19928;-76
2023/12/19 09:51:06;;;;;;;;;;;;;;;;;;5057884;28;20396;-76
2023/12/19 09:53:33;;;;;;;;;;;;;;;;;;5069100;28;19932;-76
2023/12/19 09:56:05;;;;;;;;;;;;;;;;;;5068030;28;20462;-76
2023/12/19 09:58:32;;;;;;;;;;;;;;;;;;5053254;28;19929;-77
2023/12/19 10:00:58;;;;;;;;;;;;;;;;;;5069429;28;19935;-78
2023/12/19 10:03:25;;;;;;;;;;;;;;;;;;5074216;28;19928;-77
2023/12/19 10:05:51;;;;;;;;;;;;;;;;;;5068191;28;19959;-76
2023/12/19 10:08:19;;;;;;;;;;;;;;;;;;5062913;28;20380;-77
2023/12/19 10:10:45;;;;;;;;;;;;;;;;;;5066746;28;19978;-78
2023/12/19 10:13:12;;;;;;;;;;;;;;;;;;5047331;28;19925;-76
2023/12/19 10:15:39;;;;;;;;;;;;;;;;;;5075635;28;19947;-80
2023/12/19 10:18:10;;;;;;;;;;;;;;;;;;5073388;28;19931;-75
2023/12/19 10:20:38;;;;;;;;;;;;;;;;;;5065883;28;19925;-75
2023/12/19 10:23:04;;;;;;;;;;;;;;;;;;5066963;28;19935;-78
2023/12/19 10:25:31;;;;;;;;;;;;;;;;;;5069445;28;19928;-77
2023/12/19 10:28:05;;;;;;;;;;;;;;;;;;5071165;28;19948;-77
2023/12/19 10:30:31;;;;;;;;;;;;;;;;;;5071668;28;19925;-77
2023/12/19 10:32:58;;;;;;;;;;;;;;;;;;5079168;28;19928;-78
2023/12/19 10:35:24;;;;;;;;;;;;;;;;;;5081176;28;20385;-77
2023/12/19 10:37:51;;;;;;;;;;;;;;;;;;5084643;28;19925;-79
2023/12/19 10:40:19;;;;;;;;;;;;;;;;;;5086427;28;20004;-78
2023/12/19 10:42:46;;;;;;;;;;;;;;;;;;5071044;28;19928;-78
2023/12/19 10:45:12;;;;;;;;;;;;;;;;;;5086953;28;20374;-77
2023/12/19 10:47:39;;;;;;;;;;;;;;;;;;5081092;28;19955;-79
2023/12/19 10:50:05;;;;;;;;;;;;;;;;;;5086371;28;19948;-77
2023/12/19 10:52:32;;;;;;;;;;;;;;;;;;5079270;28;19925;-78
2023/12/19 10:54:58;;;;;;;;;;;;;;;;;;5072181;28;19925;-77
2023/12/19 10:57:27;;;;;;;;;;;;;;;;;;5074015;28;19939;-76
2023/12/19 10:59:55;;;;;;;;;;;;;;;;;;5078289;28;19950;-76
2023/12/19 11:02:21;;;;;;;;;;;;;;;;;;5073671;28;19925;-76
2023/12/19 11:04:47;;;;;;;;;;;;;;;;;;5076809;28;19936;-77
2023/12/19 11:07:14;;;;;;;;;;;;;;;;;;5075286;28;19929;-78
2023/12/19 11:09:43;;;;;;;;;;;;;;;;;;5072372;28;19929;-78
2023/12/19 11:12:10;;;;;;;;;;;;;;;;;;5072308;28;20000;-79
2023/12/19 11:14:36;;;;;;;;;;;;;;;;;;5077856;28;19928;-77
2023/12/19 11:17:02;;;;;;;;;;;;;;;;;;5084910;28;19925;-78
2023/12/19 11:19:29;;;;;;;;;;;;;;;;;;5080160;28;19971;-78
2023/12/19 11:21:55;;;;;;;;;;;;;;;;;;5071291;28;20288;-78
2023/12/19 11:24:22;;;;;;;;;;;;;;;;;;5065010;28;19935;-79
2023/12/19 11:26:49;;;;;;;;;;;;;;;;;;5073357;28;19996;-76
2023/12/19 11:29:15;;;;;;;;;;;;;;;;;;5080989;28;19908;-78
2023/12/19 11:31:42;;;;;;;;;;;;;;;;;;5093552;28;19916;-78
2023/12/19 11:34:08;;;;;;;;;;;;;;;;;;5070897;28;19931;-78
2023/12/19 11:36:35;;;;;;;;;;;;;;;;;;5088376;28;19966;-79
2023/12/19 11:39:01;;;;;;;;;;;;;;;;;;5071489;28;19928;-79
2023/12/19 11:41:27;;;;;;;;;;;;;;;;;;5066092;28;20020;-80
2023/12/19 11:43:54;;;;;;;;;;;;;;;;;;5069475;28;19956;-80
2023/12/19 11:46:21;;;;;;;;;;;;;;;;;;5073857;28;19974;-79
2023/12/19 11:48:48;;;;;;;;;;;;;;;;;;5068311;28;19924;-78
2023/12/19 11:51:15;;;;;;;;;;;;;;;;;;5079015;28;20023;-76
2023/12/19 11:53:41;;;;;;;;;;;;;;;;;;5067915;28;19928;-81
2023/12/19 11:56:08;;;;;;;;;;;;;;;;;;5075119;28;19978;-81
2023/12/19 11:58:35;;;;;;;;;;;;;;;;;;5060308;28;19924;-80
2023/12/19 12:01:02;;;;;;;;;;;;;;;;;;5079163;28;19939;-80
2023/12/19 12:03:29;;;;;;;;;;;;;;;;;;5079190;28;19936;-79
2023/12/19 12:05:55;;;;;;;;;;;;;;;;;;5074264;28;19929;-79
2023/12/19 12:08:22;;;;;;;;;;;;;;;;;;5078208;28;19975;-79
2023/12/19 12:10:48;;;;;;;;;;;;;;;;;;5078943;28;19929;-77
2023/12/19 12:13:15;;;;;;;;;;;;;;;;;;5082932;28;20008;-80
2023/12/19 12:15:41;;;;;;;;;;;;;;;;;;5079055;28;19964;-80
2023/12/19 12:18:09;;;;;;;;;;;;;;;;;;5083586;28;19931;-80
2023/12/19 12:20:36;;;;;;;;;;;;;;;;;;5077894;28;20274;-78
2023/12/19 12:23:02;;;;;;;;;;;;;;;;;;5081895;28;19948;-80
2023/12/19 12:25:31;;;;;;;;;;;;;;;;;;5084176;28;19925;-81
2023/12/19 12:27:58;;;;;;;;;;;;;;;;;;5068526;28;19925;-81
2023/12/19 12:30:24;;;;;;;;;;;;;;;;;;5078308;28;19953;-79
2023/12/19 12:32:51;;;;;;;;;;;;;;;;;;5086931;28;19925;-79
2023/12/19 12:35:17;;;;;;;;;;;;;;;;;;5072154;28;19925;-81
2023/12/19 12:37:44;;;;;;;;;;;;;;;;;;5075497;28;19929;-81
2023/12/19 12:40:11;;;;;;;;;;;;;;;;;;5065798;28;19959;-79
2023/12/19 12:42:38;;;;;;;;;;;;;;;;;;5084390;28;19924;-79
2023/12/19 12:45:04;;;;;;;;;;;;;;;;;;5067473;28;19928;-79
2023/12/19 12:47:30;;;;;;;;;;;;;;;;;;5069363;28;19929;-79
2023/12/19 12:49:57;;;;;;;;;;;;;;;;;;5073524;28;20239;-79
2023/12/19 12:52:23;;;;;;;;;;;;;;;;;;5068965;28;19925;-81
2023/12/19 12:54:50;;;;;;;;;;;;;;;;;;5059396;28;19933;-79
2023/12/19 12:57:16;;;;;;;;;;;;;;;;;;5061170;28;19982;-80
2023/12/19 12:59:43;;;;;;;;;;;;;;;;;;5069461;28;20270;-80
2023/12/19 13:02:09;;;;;;;;;;;;;;;;;;5072478;28;19967;-82
2023/12/19 13:04:36;;;;;;;;;;;;;;;;;;5079195;28;20027;-83
2023/12/19 13:07:02;;;;;;;;;;;;;;;;;;5072578;28;19957;-82
2023/12/19 13:09:30;;;;;;;;;;;;;;;;;;5072102;28;19978;-83
2023/12/19 13:11:58;;;;;;;;;;;;;;;;;;5064140;28;20373;-83
2023/12/19 13:14:25;;;;;;;;;;;;;;;;;;5067798;28;20012;-83
2023/12/19 13:16:51;;;;;;;;;;;;;;;;;;5057786;28;20487;-83
2023/12/19 13:19:18;;;;;;;;;;;;;;;;;;5063153;28;19932;-84
2023/12/19 13:21:46;;;;;;;;;;;;;;;;;;5070428;28;19936;-83
2023/12/19 13:24:12;;;;;;;;;;;;;;;;;;5069755;28;19925;-83
2023/12/19 13:26:39;;;;;;;;;;;;;;;;;;5067030;28;19978;-82
2023/12/19 13:29:09;;;;;;;;;;;;;;;;;;5084452;28;19977;-86
2023/12/19 13:31:37;;;;;;;;;;;;;;;;;;5064346;28;19925;-85
2023/12/19 13:34:04;;;;;;;;;;;;;;;;;;5068015;28;19931;-83
2023/12/19 13:36:31;;;;;;;;;;;;;;;;;;5059867;28;20010;-83
2023/12/19 13:38:57;;;;;;;;;;;;;;;;;;5064822;28;19931;-84
2023/12/19 13:41:24;;;;;;;;;;;;;;;;;;5067726;28;19932;-85
2023/12/19 13:43:50;;;;;;;;;;;;;;;;;;5068770;28;19947;-83
2023/12/19 13:46:17;;;;;;;;;;;;;;;;;;5084793;28;19963;-83
2023/12/19 13:48:43;;;;;;;;;;;;;;;;;;5075248;28;19908;-82
2023/12/19 13:51:10;;;;;;;;;;;;;;;;;;5074236;28;19932;-85
2023/12/19 13:53:37;;;;;;;;;;;;;;;;;;5070147;28;19924;-84
2023/12/19 13:56:04;;;;;;;;;;;;;;;;;;5069728;28;19939;-84
2023/12/19 13:58:31;;;;;;;;;;;;;;;;;;5060565;28;19932;-81
2023/12/19 14:00:57;;;;;;;;;;;;;;;;;;5074304;28;19936;-82
2023/12/19 14:03:24;;;;;;;;;;;;;;;;;;5076178;28;19928;-85
2023/12/19 14:05:50;;;;;;;;;;;;;;;;;;5074601;28;20356;-86
2023/12/19 14:08:18;;;;;;;;;;;;;;;;;;5062611;28;19928;-86
2023/12/19 14:10:44;;;;;;;;;;;;;;;;;;5068099;28;19932;-86
2023/12/19 14:13:11;;;;;;;;;;;;;;;;;;5065746;28;20334;-85
2023/12/19 14:15:38;;;;;;;;;;;;;;;;;;5068857;28;19924;-87
2023/12/19 14:18:05;;;;;;;;;;;;;;;;;;5063579;28;19971;-88
2023/12/19 14:20:32;;;;;;;;;;;;;;;;;;5066868;28;20274;-88
2023/12/19 14:23:00;;;;;;;;;;;;;;;;;;5061832;28;19925;-85
2023/12/19 14:25:26;;;;;;;;;;;;;;;;;;5076523;28;19924;-89
2023/12/19 14:27:53;;;;;;;;;;;;;;;;;;5079741;28;19924;-85
2023/12/19 14:30:19;;;;;;;;;;;;;;;;;;5061902;28;19925;-86
2023/12/19 14:32:46;;;;;;;;;;;;;;;;;;5073209;28;20022;-86
2023/12/19 14:35:12;;;;;;;;;;;;;;;;;;5075530;28;19925;-86
2023/12/19 14:37:39;;;;;;;;;;;;;;;;;;5064716;28;19929;-86
2023/12/19 14:40:05;;;;;;;;;;;;;;;;;;5070891;28;19931;-86
2023/12/19 14:42:32;;;;;;;;;;;;;;;;;;5065540;28;19928;-86
2023/12/19 14:44:58;;;;;;;;;;;;;;;;;;5056043;28;19964;-86
2023/12/19 14:47:25;;;;;;;;;;;;;;;;;;5064551;28;19979;-86
2023/12/19 14:49:52;;;;;;;;;;;;;;;;;;5064550;28;20016;-86
2023/12/19 14:52:19;;;;;;;;;;;;;;;;;;5063201;28;19925;-86
2023/12/19 14:54:46;;;;;;;;;;;;;;;;;;5071106;28;19924;-86
2023/12/19 14:57:12;;;;;;;;;;;;;;;;;;5051147;28;19932;-86
2023/12/19 14:59:39;;;;;;;;;;;;;;;;;;5064487;28;20485;-86
2023/12/19 15:02:06;;;;;;;;;;;;;;;;;;5073043;28;19975;-86
2023/12/19 15:04:32;;;;;;;;;;;;;;;;;;5069665;28;19931;-86
2023/12/19 15:07:00;;;;;;;;;;;;;;;;;;5062799;28;20407;-84
2023/12/19 15:09:26;;;;;;;;;;;;;;;;;;5075483;28;20047;-86
2023/12/19 15:11:53;;;;;;;;;;;;;;;;;;5072367;28;19924;-85
2023/12/19 15:14:19;;;;;;;;;;;;;;;;;;5067805;28;19964;-87
2023/12/19 15:16:46;;;;;;;;;;;;;;;;;;5071293;28;20374;-86
2023/12/19 15:19:13;;;;;;;;;;;;;;;;;;5067130;28;20288;-86
2023/12/19 15:21:39;;;;;;;;;;;;;;;;;;5069840;28;20003;-85
2023/12/19 15:24:06;;;;;;;;;;;;;;;;;;5069836;28;19932;-87
2023/12/19 15:26:32;;;;;;;;;;;;;;;;;;5069153;28;19925;-85
2023/12/19 15:28:59;;;;;;;;;;;;;;;;;;5054986;28;19924;-87
2023/12/19 15:31:25;;;;;;;;;;;;;;;;;;5059831;28;19970;-84
2023/12/19 15:33:51;;;;;;;;;;;;;;;;;;5066446;28;20031;-84
2023/12/19 15:36:19;;;;;;;;;;;;;;;;;;5071317;28;20018;-84
2023/12/19 15:38:45;;;;;;;;;;;;;;;;;;5068429;28;19929;-86
2023/12/19 15:41:13;;;;;;;;;;;;;;;;;;5067783;28;20406;-83
2023/12/19 15:43:42;;;;;;;;;;;;;;;;;;5067800;28;19924;-84
2023/12/19 15:46:13;;;;;;;;;;;;;;;;;;5054002;28;20440;-85
2023/12/19 15:48:40;;;;;;;;;;;;;;;;;;5072954;28;19928;-86
2023/12/19 15:51:06;;;;;;;;;;;;;;;;;;5062831;28;19975;-85
2023/12/19 15:53:33;;;;;;;;;;;;;;;;;;5064655;28;19929;-85
2023/12/19 15:55:59;;;;;;;;;;;;;;;;;;5067856;28;20051;-84
2023/12/19 15:58:26;;;;;;;;;;;;;;;;;;5067615;28;19924;-85
2023/12/19 16:00:53;;;;;;;;;;;;;;;;;;5061313;28;19971;-86
2023/12/19 16:03:20;;;;;;;;;;;;;;;;;;5071292;28;20428;-85
2023/12/19 16:05:46;;;;;;;;;;;;;;;;;;5056504;28;19924;-86
2023/12/19 16:08:13;;;;;;;;;;;;;;;;;;5054108;28;19990;-85
2023/12/19 16:10:39;;;;;;;;;;;;;;;;;;5064268;28;20314;-86
2023/12/19 16:13:07;;;;;;;;;;;;;;;;;;5072606;28;19928;-86
2023/12/19 16:15:33;;;;;;;;;;;;;;;;;;5057520;28;19986;-86
2023/12/19 16:18:00;;;;;;;;;;;;;;;;;;5065574;28;20447;-86
2023/12/19 16:20:26;;;;;;;;;;;;;;;;;;5061041;28;19925;-86
2023/12/19 16:22:53;;;;;;;;;;;;;;;;;;5059924;28;19932;-85
2023/12/19 16:25:19;;;;;;;;;;;;;;;;;;5054772;28;20012;-86
2023/12/19 16:27:45;;;;;;;;;;;;;;;;;;5066059;28;19929;-86
2023/12/19 16:30:12;;;;;;;;;;;;;;;;;;5062353;28;19929;-86
2023/12/19 16:32:39;;;;;;;;;;;;;;;;;;5063768;28;19929;-85
2023/12/19 16:35:05;;;;;;;;;;;;;;;;;;5070877;28;19925;-85
2023/12/19 16:37:32;;;;;;;;;;;;;;;;;;5068586;28;19931;-84
2023/12/19 16:39:58;;;;;;;;;;;;;;;;;;5064167;28;19932;-85
2023/12/19 16:42:25;;;;;;;;;;;;;;;;;;5072049;28;20301;-86